sensor_id;sensor_type;location;lat;lon;timestamp;P1;durP1;ratioP1;P2;durP2;ratioP2
72864;SDS011;61000;48.120;11.548;2022-08-27T00:01:21;19.52;;;12.77;;
72864;SDS011;61000;48.120;11.548;2022-08-27T00:03:49;18.77;;;12.10;;
72864;SDS011;61000;48.120;11.548;2022-08-27T00:06:17;14.98;;;11.30;;
72864;SDS011;61000;48.120;11.548;2022-08-27T00:08:45;18.73;;;11.52;;
72864;SDS011;61000;48.120;11.548;2022-08-27T00:11:13;25.20;;;11.10;;
72864;SDS011;61000;48.120;11.548;2022-08-27T00:13:42;21.13;;;12.77;;
72864;SDS011;61000;48.120;11.548;2022-08-27T00:16:11;21.83;;;12.40;;
72864;SDS011;61000;48.120;11.548;2022-08-27T00:18:40;21.70;;;12.05;;
72864;SDS011;61000;48.120;11.548;2022-08-27T00:21:07;21.63;;;12.43;;
72864;SDS011;61000;48.120;11.548;2022-08-27T00:23:35;22.20;;;12.80;;
72864;SDS011;61000;48.120;11.548;2022-08-27T00:26:02;22.67;;;12.00;;
72864;SDS011;61000;48.120;11.548;2022-08-27T00:28:30;19.00;;;12.35;;
72864;SDS011;61000;48.120;11.548;2022-08-27T00:30:58;17.42;;;11.75;;
72864;SDS011;61000;48.120;11.548;2022-08-27T00:33:26;16.17;;;11.38;;
72864;SDS011;61000;48.120;11.548;2022-08-27T00:35:54;16.13;;;10.95;;
72864;SDS011;61000;48.120;11.548;2022-08-27T00:38:22;17.83;;;10.98;;
72864;SDS011;61000;48.120;11.548;2022-08-27T00:40:49;15.60;;;9.95;;
72864;SDS011;61000;48.120;11.548;2022-08-27T00:43:19;16.27;;;10.20;;
72864;SDS011;61000;48.120;11.548;2022-08-27T00:45:47;16.17;;;10.35;;
72864;SDS011;61000;48.120;11.548;2022-08-27T00:48:15;16.45;;;11.50;;
72864;SDS011;61000;48.120;11.548;2022-08-27T00:50:51;18.00;;;10.55;;
72864;SDS011;61000;48.120;11.548;2022-08-27T00:53:20;12.82;;;10.57;;
72864;SDS011;61000;48.120;11.548;2022-08-27T00:55:50;17.85;;;11.02;;
72864;SDS011;61000;48.120;11.548;2022-08-27T00:58:25;14.80;;;10.13;;
72864;SDS011;61000;48.120;11.548;2022-08-27T01:00:54;15.40;;;10.63;;
72864;SDS011;61000;48.120;11.548;2022-08-27T01:03:22;17.25;;;10.50;;
72864;SDS011;61000;48.120;11.548;2022-08-27T01:05:52;17.35;;;10.50;;
72864;SDS011;61000;48.120;11.548;2022-08-27T01:08:27;16.02;;;9.60;;
72864;SDS011;61000;48.120;11.548;2022-08-27T01:10:56;16.67;;;10.18;;
72864;SDS011;61000;48.120;11.548;2022-08-27T01:13:25;14.75;;;10.45;;
72864;SDS011;61000;48.120;11.548;2022-08-27T01:15:55;18.75;;;10.95;;
72864;SDS011;61000;48.120;11.548;2022-08-27T01:18:28;21.20;;;11.70;;
72864;SDS011;61000;48.120;11.548;2022-08-27T01:21:00;17.00;;;11.25;;
72864;SDS011;61000;48.120;11.548;2022-08-27T01:23:36;16.85;;;11.13;;
72864;SDS011;61000;48.120;11.548;2022-08-27T01:26:09;15.05;;;11.43;;
72864;SDS011;61000;48.120;11.548;2022-08-27T01:28:40;16.60;;;11.18;;
72864;SDS011;61000;48.120;11.548;2022-08-27T01:31:08;20.70;;;11.85;;
72864;SDS011;61000;48.120;11.548;2022-08-27T01:33:36;17.33;;;11.25;;
72864;SDS011;61000;48.120;11.548;2022-08-27T01:36:03;18.15;;;11.27;;
72864;SDS011;61000;48.120;11.548;2022-08-27T01:38:32;16.55;;;11.40;;
72864;SDS011;61000;48.120;11.548;2022-08-27T01:40:59;16.50;;;11.35;;
72864;SDS011;61000;48.120;11.548;2022-08-27T01:43:28;16.60;;;11.65;;
72864;SDS011;61000;48.120;11.548;2022-08-27T01:45:56;16.55;;;11.07;;
72864;SDS011;61000;48.120;11.548;2022-08-27T01:48:23;17.10;;;10.70;;
72864;SDS011;61000;48.120;11.548;2022-08-27T01:50:50;18.80;;;11.02;;
72864;SDS011;61000;48.120;11.548;2022-08-27T01:53:18;13.60;;;10.52;;
72864;SDS011;61000;48.120;11.548;2022-08-27T01:55:46;16.08;;;11.32;;
72864;SDS011;61000;48.120;11.548;2022-08-27T01:58:15;15.13;;;10.55;;
72864;SDS011;61000;48.120;11.548;2022-08-27T02:00:45;16.08;;;11.00;;
72864;SDS011;61000;48.120;11.548;2022-08-27T02:03:14;19.20;;;12.05;;
72864;SDS011;61000;48.120;11.548;2022-08-27T02:05:43;16.95;;;11.50;;
72864;SDS011;61000;48.120;11.548;2022-08-27T02:08:12;16.30;;;10.93;;
72864;SDS011;61000;48.120;11.548;2022-08-27T02:10:40;16.88;;;10.52;;
72864;SDS011;61000;48.120;11.548;2022-08-27T02:13:09;17.10;;;10.93;;
72864;SDS011;61000;48.120;11.548;2022-08-27T02:15:37;15.93;;;11.07;;
72864;SDS011;61000;48.120;11.548;2022-08-27T02:18:07;14.73;;;10.57;;
72864;SDS011;61000;48.120;11.548;2022-08-27T02:20:35;17.48;;;10.85;;
72864;SDS011;61000;48.120;11.548;2022-08-27T02:23:03;21.30;;;11.48;;
72864;SDS011;61000;48.120;11.548;2022-08-27T02:25:30;15.50;;;12.15;;
72864;SDS011;61000;48.120;11.548;2022-08-27T02:27:57;17.10;;;11.82;;
72864;SDS011;61000;48.120;11.548;2022-08-27T02:30:25;17.58;;;10.70;;
72864;SDS011;61000;48.120;11.548;2022-08-27T02:32:52;15.63;;;10.70;;
72864;SDS011;61000;48.120;11.548;2022-08-27T02:35:22;16.63;;;10.23;;
72864;SDS011;61000;48.120;11.548;2022-08-27T02:37:50;15.10;;;10.73;;
72864;SDS011;61000;48.120;11.548;2022-08-27T02:40:18;12.18;;;10.35;;
72864;SDS011;61000;48.120;11.548;2022-08-27T02:42:46;15.13;;;10.15;;
72864;SDS011;61000;48.120;11.548;2022-08-27T02:45:14;14.50;;;9.38;;
72864;SDS011;61000;48.120;11.548;2022-08-27T02:47:42;17.10;;;10.63;;
72864;SDS011;61000;48.120;11.548;2022-08-27T02:50:09;14.93;;;9.57;;
72864;SDS011;61000;48.120;11.548;2022-08-27T02:52:39;19.45;;;9.73;;
72864;SDS011;61000;48.120;11.548;2022-08-27T02:55:06;14.30;;;9.18;;
72864;SDS011;61000;48.120;11.548;2022-08-27T02:57:33;12.23;;;9.27;;
72864;SDS011;61000;48.120;11.548;2022-08-27T03:00:01;13.43;;;8.50;;
72864;SDS011;61000;48.120;11.548;2022-08-27T03:02:29;9.98;;;7.82;;
72864;SDS011;61000;48.120;11.548;2022-08-27T03:04:56;10.07;;;7.53;;
72864;SDS011;61000;48.120;11.548;2022-08-27T03:07:23;10.38;;;7.88;;
72864;SDS011;61000;48.120;11.548;2022-08-27T03:09:51;7.97;;;6.95;;
72864;SDS011;61000;48.120;11.548;2022-08-27T03:12:23;10.25;;;6.53;;
72864;SDS011;61000;48.120;11.548;2022-08-27T03:15:14;8.15;;;6.70;;
72864;SDS011;61000;48.120;11.548;2022-08-27T03:17:42;10.05;;;6.70;;
72864;SDS011;61000;48.120;11.548;2022-08-27T03:20:27;11.82;;;6.18;;
72864;SDS011;61000;48.120;11.548;2022-08-27T03:22:54;7.90;;;5.93;;
72864;SDS011;61000;48.120;11.548;2022-08-27T03:25:23;8.10;;;6.20;;
72864;SDS011;61000;48.120;11.548;2022-08-27T03:27:51;8.93;;;6.30;;
72864;SDS011;61000;48.120;11.548;2022-08-27T03:30:18;7.55;;;6.38;;
72864;SDS011;61000;48.120;11.548;2022-08-27T03:32:47;8.40;;;6.78;;
72864;SDS011;61000;48.120;11.548;2022-08-27T03:35:14;9.45;;;6.30;;
72864;SDS011;61000;48.120;11.548;2022-08-27T03:37:42;7.45;;;6.25;;
72864;SDS011;61000;48.120;11.548;2022-08-27T03:40:09;9.18;;;5.97;;
72864;SDS011;61000;48.120;11.548;2022-08-27T03:42:38;10.35;;;6.95;;
72864;SDS011;61000;48.120;11.548;2022-08-27T03:45:06;6.97;;;5.82;;
72864;SDS011;61000;48.120;11.548;2022-08-27T03:47:35;8.65;;;6.00;;
72864;SDS011;61000;48.120;11.548;2022-08-27T03:50:03;6.32;;;5.70;;
72864;SDS011;61000;48.120;11.548;2022-08-27T03:52:32;8.23;;;5.90;;
72864;SDS011;61000;48.120;11.548;2022-08-27T03:54:59;8.60;;;6.15;;
72864;SDS011;61000;48.120;11.548;2022-08-27T03:57:28;9.55;;;6.20;;
72864;SDS011;61000;48.120;11.548;2022-08-27T03:59:57;7.80;;;5.93;;
72864;SDS011;61000;48.120;11.548;2022-08-27T04:02:24;8.00;;;6.53;;
72864;SDS011;61000;48.120;11.548;2022-08-27T04:04:51;8.68;;;6.28;;
72864;SDS011;61000;48.120;11.548;2022-08-27T04:07:18;7.43;;;6.30;;
72864;SDS011;61000;48.120;11.548;2022-08-27T04:09:45;7.45;;;6.38;;
72864;SDS011;61000;48.120;11.548;2022-08-27T04:12:12;8.90;;;6.30;;
72864;SDS011;61000;48.120;11.548;2022-08-27T04:14:38;7.90;;;6.25;;
72864;SDS011;61000;48.120;11.548;2022-08-27T04:17:07;8.35;;;5.85;;
72864;SDS011;61000;48.120;11.548;2022-08-27T04:19:34;9.98;;;6.80;;
72864;SDS011;61000;48.120;11.548;2022-08-27T04:22:01;9.48;;;6.55;;
72864;SDS011;61000;48.120;11.548;2022-08-27T04:24:31;12.55;;;6.47;;
72864;SDS011;61000;48.120;11.548;2022-08-27T04:26:59;9.43;;;6.65;;
72864;SDS011;61000;48.120;11.548;2022-08-27T04:29:27;9.82;;;7.25;;
72864;SDS011;61000;48.120;11.548;2022-08-27T04:31:54;8.82;;;6.70;;
72864;SDS011;61000;48.120;11.548;2022-08-27T04:34:22;9.15;;;6.55;;
72864;SDS011;61000;48.120;11.548;2022-08-27T04:36:49;7.68;;;6.53;;
72864;SDS011;61000;48.120;11.548;2022-08-27T04:39:17;13.25;;;6.82;;
72864;SDS011;61000;48.120;11.548;2022-08-27T04:41:47;7.28;;;6.47;;
72864;SDS011;61000;48.120;11.548;2022-08-27T04:44:14;12.02;;;7.55;;
72864;SDS011;61000;48.120;11.548;2022-08-27T04:46:41;7.25;;;6.28;;
72864;SDS011;61000;48.120;11.548;2022-08-27T04:49:09;8.85;;;7.07;;
72864;SDS011;61000;48.120;11.548;2022-08-27T04:51:45;9.23;;;6.70;;
72864;SDS011;61000;48.120;11.548;2022-08-27T04:54:12;8.35;;;7.13;;
72864;SDS011;61000;48.120;11.548;2022-08-27T04:56:39;9.90;;;7.03;;
72864;SDS011;61000;48.120;11.548;2022-08-27T04:59:06;12.05;;;8.15;;
72864;SDS011;61000;48.120;11.548;2022-08-27T05:01:35;10.13;;;7.22;;
72864;SDS011;61000;48.120;11.548;2022-08-27T05:04:03;9.02;;;7.57;;
72864;SDS011;61000;48.120;11.548;2022-08-27T05:06:33;8.90;;;7.95;;
72864;SDS011;61000;48.120;11.548;2022-08-27T05:09:02;9.10;;;7.47;;
72864;SDS011;61000;48.120;11.548;2022-08-27T05:11:30;8.85;;;6.90;;
72864;SDS011;61000;48.120;11.548;2022-08-27T05:14:00;8.48;;;6.70;;
72864;SDS011;61000;48.120;11.548;2022-08-27T05:16:28;7.82;;;7.03;;
72864;SDS011;61000;48.120;11.548;2022-08-27T05:18:56;11.70;;;7.18;;
72864;SDS011;61000;48.120;11.548;2022-08-27T05:21:24;9.20;;;7.63;;
72864;SDS011;61000;48.120;11.548;2022-08-27T05:23:53;8.43;;;6.65;;
72864;SDS011;61000;48.120;11.548;2022-08-27T05:26:24;8.57;;;6.43;;
72864;SDS011;61000;48.120;11.548;2022-08-27T05:28:51;7.85;;;6.82;;
72864;SDS011;61000;48.120;11.548;2022-08-27T05:31:18;9.40;;;6.53;;
72864;SDS011;61000;48.120;11.548;2022-08-27T05:33:47;7.72;;;6.60;;
72864;SDS011;61000;48.120;11.548;2022-08-27T05:36:15;7.35;;;6.32;;
72864;SDS011;61000;48.120;11.548;2022-08-27T05:38:43;8.13;;;6.40;;
72864;SDS011;61000;48.120;11.548;2022-08-27T05:41:11;7.85;;;6.28;;
72864;SDS011;61000;48.120;11.548;2022-08-27T05:43:43;8.15;;;6.70;;
72864;SDS011;61000;48.120;11.548;2022-08-27T05:46:11;6.88;;;5.88;;
72864;SDS011;61000;48.120;11.548;2022-08-27T05:48:39;8.52;;;6.88;;
72864;SDS011;61000;48.120;11.548;2022-08-27T05:51:08;7.30;;;6.32;;
72864;SDS011;61000;48.120;11.548;2022-08-27T05:53:37;8.88;;;6.85;;
72864;SDS011;61000;48.120;11.548;2022-08-27T05:56:07;9.13;;;6.15;;
72864;SDS011;61000;48.120;11.548;2022-08-27T05:58:37;10.18;;;5.50;;
72864;SDS011;61000;48.120;11.548;2022-08-27T06:01:23;6.70;;;4.75;;
72864;SDS011;61000;48.120;11.548;2022-08-27T06:03:50;5.63;;;4.22;;
72864;SDS011;61000;48.120;11.548;2022-08-27T06:06:19;5.70;;;4.10;;
72864;SDS011;61000;48.120;11.548;2022-08-27T06:08:47;5.25;;;4.18;;
72864;SDS011;61000;48.120;11.548;2022-08-27T06:11:15;5.20;;;4.20;;
72864;SDS011;61000;48.120;11.548;2022-08-27T06:13:43;4.05;;;3.65;;
72864;SDS011;61000;48.120;11.548;2022-08-27T06:16:12;4.35;;;3.95;;
72864;SDS011;61000;48.120;11.548;2022-08-27T06:18:42;4.47;;;3.80;;
72864;SDS011;61000;48.120;11.548;2022-08-27T06:21:11;4.82;;;4.32;;
72864;SDS011;61000;48.120;11.548;2022-08-27T06:23:39;6.63;;;4.82;;
72864;SDS011;61000;48.120;11.548;2022-08-27T06:26:07;5.55;;;4.18;;
72864;SDS011;61000;48.120;11.548;2022-08-27T06:28:36;4.90;;;4.22;;
72864;SDS011;61000;48.120;11.548;2022-08-27T06:31:05;5.38;;;4.20;;
72864;SDS011;61000;48.120;11.548;2022-08-27T06:33:33;5.55;;;4.40;;
72864;SDS011;61000;48.120;11.548;2022-08-27T06:36:03;13.23;;;5.05;;
72864;SDS011;61000;48.120;11.548;2022-08-27T06:38:32;6.00;;;4.53;;
72864;SDS011;61000;48.120;11.548;2022-08-27T06:40:59;4.90;;;4.47;;
72864;SDS011;61000;48.120;11.548;2022-08-27T06:43:28;5.32;;;4.82;;
72864;SDS011;61000;48.120;11.548;2022-08-27T06:45:54;7.65;;;6.05;;
72864;SDS011;61000;48.120;11.548;2022-08-27T06:48:21;11.13;;;6.63;;
72864;SDS011;61000;48.120;11.548;2022-08-27T06:50:48;10.20;;;6.78;;
72864;SDS011;61000;48.120;11.548;2022-08-27T06:53:16;7.80;;;6.78;;
72864;SDS011;61000;48.120;11.548;2022-08-27T06:55:44;8.90;;;6.60;;
72864;SDS011;61000;48.120;11.548;2022-08-27T06:58:12;8.57;;;7.05;;
72864;SDS011;61000;48.120;11.548;2022-08-27T07:00:40;8.55;;;7.10;;
72864;SDS011;61000;48.120;11.548;2022-08-27T07:03:08;9.10;;;6.93;;
72864;SDS011;61000;48.120;11.548;2022-08-27T07:05:36;7.63;;;6.55;;
72864;SDS011;61000;48.120;11.548;2022-08-27T07:08:05;9.25;;;6.57;;
72864;SDS011;61000;48.120;11.548;2022-08-27T07:10:35;9.68;;;7.28;;
72864;SDS011;61000;48.120;11.548;2022-08-27T07:13:02;9.77;;;6.95;;
72864;SDS011;61000;48.120;11.548;2022-08-27T07:15:29;9.98;;;6.93;;
72864;SDS011;61000;48.120;11.548;2022-08-27T07:17:57;7.78;;;6.95;;
72864;SDS011;61000;48.120;11.548;2022-08-27T07:20:24;9.15;;;6.20;;
72864;SDS011;61000;48.120;11.548;2022-08-27T07:22:51;8.45;;;6.75;;
72864;SDS011;61000;48.120;11.548;2022-08-27T07:25:18;9.25;;;5.95;;
72864;SDS011;61000;48.120;11.548;2022-08-27T07:27:47;7.45;;;5.85;;
72864;SDS011;61000;48.120;11.548;2022-08-27T07:30:15;8.43;;;6.45;;
72864;SDS011;61000;48.120;11.548;2022-08-27T07:32:44;8.13;;;6.50;;
72864;SDS011;61000;48.120;11.548;2022-08-27T07:35:11;8.18;;;6.63;;
72864;SDS011;61000;48.120;11.548;2022-08-27T07:37:39;8.25;;;6.45;;
72864;SDS011;61000;48.120;11.548;2022-08-27T07:40:08;9.10;;;7.00;;
72864;SDS011;61000;48.120;11.548;2022-08-27T07:42:37;8.18;;;6.38;;
72864;SDS011;61000;48.120;11.548;2022-08-27T07:45:23;9.75;;;7.45;;
72864;SDS011;61000;48.120;11.548;2022-08-27T07:47:50;8.02;;;6.40;;
72864;SDS011;61000;48.120;11.548;2022-08-27T07:50:18;7.18;;;6.45;;
72864;SDS011;61000;48.120;11.548;2022-08-27T07:52:47;8.35;;;6.25;;
72864;SDS011;61000;48.120;11.548;2022-08-27T07:55:15;8.20;;;5.93;;
72864;SDS011;61000;48.120;11.548;2022-08-27T07:57:42;7.88;;;6.55;;
72864;SDS011;61000;48.120;11.548;2022-08-27T08:00:10;9.07;;;6.43;;
72864;SDS011;61000;48.120;11.548;2022-08-27T08:02:41;8.38;;;6.60;;
72864;SDS011;61000;48.120;11.548;2022-08-27T08:05:11;11.45;;;7.00;;
72864;SDS011;61000;48.120;11.548;2022-08-27T08:07:39;7.57;;;5.40;;
72864;SDS011;61000;48.120;11.548;2022-08-27T08:10:07;6.82;;;5.63;;
72864;SDS011;61000;48.120;11.548;2022-08-27T08:12:35;8.27;;;5.85;;
72864;SDS011;61000;48.120;11.548;2022-08-27T08:15:04;5.78;;;5.18;;
72864;SDS011;61000;48.120;11.548;2022-08-27T08:17:32;8.80;;;5.57;;
72864;SDS011;61000;48.120;11.548;2022-08-27T08:20:01;6.00;;;4.95;;
72864;SDS011;61000;48.120;11.548;2022-08-27T08:22:29;7.80;;;6.20;;
72864;SDS011;61000;48.120;11.548;2022-08-27T08:24:56;8.07;;;6.03;;
72864;SDS011;61000;48.120;11.548;2022-08-27T08:27:23;7.95;;;5.60;;
72864;SDS011;61000;48.120;11.548;2022-08-27T08:29:50;8.20;;;5.32;;
72864;SDS011;61000;48.120;11.548;2022-08-27T08:32:17;7.55;;;5.20;;
72864;SDS011;61000;48.120;11.548;2022-08-27T08:34:45;6.70;;;5.20;;
72864;SDS011;61000;48.120;11.548;2022-08-27T08:37:14;6.97;;;4.63;;
72864;SDS011;61000;48.120;11.548;2022-08-27T08:39:41;7.00;;;5.97;;
72864;SDS011;61000;48.120;11.548;2022-08-27T08:42:09;7.43;;;5.60;;
72864;SDS011;61000;48.120;11.548;2022-08-27T08:44:51;6.85;;;5.28;;
72864;SDS011;61000;48.120;11.548;2022-08-27T08:47:20;7.70;;;6.18;;
72864;SDS011;61000;48.120;11.548;2022-08-27T08:49:51;7.53;;;5.70;;
72864;SDS011;61000;48.120;11.548;2022-08-27T08:52:36;7.43;;;5.47;;
72864;SDS011;61000;48.120;11.548;2022-08-27T08:55:12;6.20;;;5.55;;
72864;SDS011;61000;48.120;11.548;2022-08-27T08:57:48;14.25;;;5.15;;
72864;SDS011;61000;48.120;11.548;2022-08-27T09:00:18;6.38;;;5.68;;
72864;SDS011;61000;48.120;11.548;2022-08-27T09:02:47;8.35;;;5.38;;
72864;SDS011;61000;48.120;11.548;2022-08-27T09:05:18;6.53;;;5.45;;
72864;SDS011;61000;48.120;11.548;2022-08-27T09:07:49;7.72;;;5.35;;
72864;SDS011;61000;48.120;11.548;2022-08-27T09:10:21;6.50;;;5.15;;
72864;SDS011;61000;48.120;11.548;2022-08-27T09:12:52;7.50;;;5.40;;
72864;SDS011;61000;48.120;11.548;2022-08-27T09:15:24;7.40;;;5.55;;
72864;SDS011;61000;48.120;11.548;2022-08-27T09:18:02;6.97;;;5.85;;
72864;SDS011;61000;48.120;11.548;2022-08-27T09:20:31;6.43;;;5.28;;
72864;SDS011;61000;48.120;11.548;2022-08-27T09:23:03;5.20;;;4.70;;
72864;SDS011;61000;48.120;11.548;2022-08-27T09:25:36;7.95;;;5.85;;
72864;SDS011;61000;48.120;11.548;2022-08-27T09:28:06;6.15;;;5.18;;
72864;SDS011;61000;48.120;11.548;2022-08-27T09:30:58;6.28;;;4.70;;
72864;SDS011;61000;48.120;11.548;2022-08-27T09:33:25;10.55;;;6.78;;
72864;SDS011;61000;48.120;11.548;2022-08-27T09:35:53;6.55;;;4.85;;
72864;SDS011;61000;48.120;11.548;2022-08-27T09:38:23;7.38;;;5.15;;
72864;SDS011;61000;48.120;11.548;2022-08-27T09:40:54;5.63;;;5.10;;
72864;SDS011;61000;48.120;11.548;2022-08-27T09:43:25;6.90;;;6.13;;
72864;SDS011;61000;48.120;11.548;2022-08-27T09:45:56;6.30;;;5.18;;
72864;SDS011;61000;48.120;11.548;2022-08-27T09:48:26;6.63;;;5.22;;
72864;SDS011;61000;48.120;11.548;2022-08-27T09:50:54;5.90;;;5.30;;
72864;SDS011;61000;48.120;11.548;2022-08-27T09:53:25;5.53;;;4.88;;
72864;SDS011;61000;48.120;11.548;2022-08-27T09:55:56;6.10;;;5.00;;
72864;SDS011;61000;48.120;11.548;2022-08-27T09:58:25;10.73;;;5.60;;
72864;SDS011;61000;48.120;11.548;2022-08-27T10:01:00;5.57;;;5.07;;
72864;SDS011;61000;48.120;11.548;2022-08-27T10:03:28;5.30;;;4.80;;
72864;SDS011;61000;48.120;11.548;2022-08-27T10:05:55;6.22;;;4.70;;
72864;SDS011;61000;48.120;11.548;2022-08-27T10:08:24;5.82;;;4.97;;
72864;SDS011;61000;48.120;11.548;2022-08-27T10:10:58;7.15;;;4.60;;
72864;SDS011;61000;48.120;11.548;2022-08-27T10:13:30;5.35;;;4.85;;
72864;SDS011;61000;48.120;11.548;2022-08-27T10:16:05;5.95;;;5.07;;
72864;SDS011;61000;48.120;11.548;2022-08-27T10:18:47;6.43;;;4.75;;
72864;SDS011;61000;48.120;11.548;2022-08-27T10:21:23;4.97;;;4.55;;
72864;SDS011;61000;48.120;11.548;2022-08-27T10:24:01;5.20;;;4.70;;
72864;SDS011;61000;48.120;11.548;2022-08-27T10:26:39;5.78;;;4.70;;
72864;SDS011;61000;48.120;11.548;2022-08-27T10:29:13;5.15;;;4.50;;
72864;SDS011;61000;48.120;11.548;2022-08-27T10:31:52;5.10;;;4.32;;
72864;SDS011;61000;48.120;11.548;2022-08-27T10:34:30;5.15;;;4.65;;
72864;SDS011;61000;48.120;11.548;2022-08-27T10:37:07;6.95;;;4.93;;
72864;SDS011;61000;48.120;11.548;2022-08-27T10:39:48;4.97;;;4.32;;
72864;SDS011;61000;48.120;11.548;2022-08-27T10:42:25;5.80;;;5.10;;
72864;SDS011;61000;48.120;11.548;2022-08-27T10:45:00;6.47;;;5.30;;
72864;SDS011;61000;48.120;11.548;2022-08-27T10:47:43;6.15;;;4.43;;
72864;SDS011;61000;48.120;11.548;2022-08-27T10:50:24;7.82;;;4.90;;
72864;SDS011;61000;48.120;11.548;2022-08-27T10:52:54;6.65;;;4.53;;
72864;SDS011;61000;48.120;11.548;2022-08-27T10:55:28;5.25;;;4.70;;
72864;SDS011;61000;48.120;11.548;2022-08-27T10:58:01;6.50;;;4.78;;
72864;SDS011;61000;48.120;11.548;2022-08-27T11:00:47;5.88;;;4.60;;
72864;SDS011;61000;48.120;11.548;2022-08-27T11:03:25;5.18;;;4.30;;
72864;SDS011;61000;48.120;11.548;2022-08-27T11:05:57;5.28;;;4.53;;
72864;SDS011;61000;48.120;11.548;2022-08-27T11:08:31;6.55;;;4.70;;
72864;SDS011;61000;48.120;11.548;2022-08-27T11:11:05;5.93;;;4.40;;
72864;SDS011;61000;48.120;11.548;2022-08-27T11:13:36;4.40;;;4.00;;
72864;SDS011;61000;48.120;11.548;2022-08-27T11:16:16;4.20;;;3.80;;
72864;SDS011;61000;48.120;11.548;2022-08-27T11:18:50;7.22;;;4.50;;
72864;SDS011;61000;48.120;11.548;2022-08-27T11:21:23;4.25;;;3.85;;
72864;SDS011;61000;48.120;11.548;2022-08-27T11:23:59;5.85;;;3.88;;
72864;SDS011;61000;48.120;11.548;2022-08-27T11:26:34;7.43;;;4.10;;
72864;SDS011;61000;48.120;11.548;2022-08-27T11:29:08;8.45;;;4.00;;
72864;SDS011;61000;48.120;11.548;2022-08-27T11:31:46;4.07;;;3.67;;
72864;SDS011;61000;48.120;11.548;2022-08-27T11:34:18;5.88;;;4.03;;
72864;SDS011;61000;48.120;11.548;2022-08-27T11:39:53;3.50;;;3.20;;
72864;SDS011;61000;48.120;11.548;2022-08-27T11:42:35;3.83;;;3.40;;
72864;SDS011;61000;48.120;11.548;2022-08-27T11:45:07;3.95;;;3.55;;
72864;SDS011;61000;48.120;11.548;2022-08-27T11:47:49;3.95;;;3.55;;
72864;SDS011;61000;48.120;11.548;2022-08-27T11:50:17;4.68;;;3.67;;
72864;SDS011;61000;48.120;11.548;2022-08-27T11:52:53;6.70;;;3.47;;
72864;SDS011;61000;48.120;11.548;2022-08-27T11:55:24;5.57;;;3.92;;
72864;SDS011;61000;48.120;11.548;2022-08-27T11:58:06;6.22;;;3.72;;
72864;SDS011;61000;48.120;11.548;2022-08-27T12:00:35;4.82;;;3.78;;
72864;SDS011;61000;48.120;11.548;2022-08-27T12:03:05;5.20;;;3.95;;
72864;SDS011;61000;48.120;11.548;2022-08-27T12:05:35;6.75;;;4.05;;
72864;SDS011;61000;48.120;11.548;2022-08-27T12:08:12;4.45;;;3.88;;
72864;SDS011;61000;48.120;11.548;2022-08-27T12:10:56;5.40;;;4.22;;
72864;SDS011;61000;48.120;11.548;2022-08-27T12:13:49;4.38;;;3.97;;
72864;SDS011;61000;48.120;11.548;2022-08-27T12:16:24;4.55;;;3.85;;
72864;SDS011;61000;48.120;11.548;2022-08-27T12:19:02;3.92;;;3.53;;
72864;SDS011;61000;48.120;11.548;2022-08-27T12:21:44;6.00;;;3.58;;
72864;SDS011;61000;48.120;11.548;2022-08-27T12:24:19;4.78;;;3.70;;
72864;SDS011;61000;48.120;11.548;2022-08-27T12:27:12;4.45;;;3.50;;
72864;SDS011;61000;48.120;11.548;2022-08-27T12:29:58;4.10;;;3.60;;
72864;SDS011;61000;48.120;11.548;2022-08-27T12:32:29;4.65;;;3.67;;
72864;SDS011;61000;48.120;11.548;2022-08-27T12:35:04;5.47;;;3.63;;
72864;SDS011;61000;48.120;11.548;2022-08-27T12:37:36;4.13;;;3.13;;
72864;SDS011;61000;48.120;11.548;2022-08-27T12:40:11;7.28;;;3.63;;
72864;SDS011;61000;48.120;11.548;2022-08-27T12:42:44;5.05;;;3.45;;
72864;SDS011;61000;48.120;11.548;2022-08-27T12:45:18;5.20;;;3.40;;
72864;SDS011;61000;48.120;11.548;2022-08-27T12:47:46;4.53;;;3.47;;
72864;SDS011;61000;48.120;11.548;2022-08-27T12:50:17;5.45;;;3.30;;
72864;SDS011;61000;48.120;11.548;2022-08-27T12:53:00;5.35;;;4.07;;
72864;SDS011;61000;48.120;11.548;2022-08-27T12:55:39;3.65;;;3.20;;
72864;SDS011;61000;48.120;11.548;2022-08-27T12:58:18;4.28;;;3.42;;
72864;SDS011;61000;48.120;11.548;2022-08-27T13:00:59;4.35;;;3.50;;
72864;SDS011;61000;48.120;11.548;2022-08-27T13:03:37;3.95;;;3.03;;
72864;SDS011;61000;48.120;11.548;2022-08-27T13:06:16;6.82;;;3.10;;
72864;SDS011;61000;48.120;11.548;2022-08-27T13:08:44;4.90;;;3.42;;
72864;SDS011;61000;48.120;11.548;2022-08-27T13:11:15;3.55;;;3.05;;
72864;SDS011;61000;48.120;11.548;2022-08-27T13:13:46;4.25;;;3.42;;
72864;SDS011;61000;48.120;11.548;2022-08-27T13:16:15;3.83;;;3.45;;
72864;SDS011;61000;48.120;11.548;2022-08-27T13:18:45;4.88;;;3.00;;
72864;SDS011;61000;48.120;11.548;2022-08-27T13:21:15;5.10;;;3.10;;
72864;SDS011;61000;48.120;11.548;2022-08-27T13:23:47;3.70;;;3.25;;
72864;SDS011;61000;48.120;11.548;2022-08-27T13:26:20;4.72;;;3.30;;
72864;SDS011;61000;48.120;11.548;2022-08-27T13:28:48;3.63;;;2.75;;
72864;SDS011;61000;48.120;11.548;2022-08-27T13:31:17;4.45;;;2.65;;
72864;SDS011;61000;48.120;11.548;2022-08-27T13:33:46;6.45;;;3.35;;
72864;SDS011;61000;48.120;11.548;2022-08-27T13:36:23;4.80;;;3.10;;
72864;SDS011;61000;48.120;11.548;2022-08-27T13:38:51;5.15;;;3.10;;
72864;SDS011;61000;48.120;11.548;2022-08-27T13:41:21;4.55;;;3.50;;
72864;SDS011;61000;48.120;11.548;2022-08-27T13:43:54;5.75;;;3.42;;
72864;SDS011;61000;48.120;11.548;2022-08-27T13:46:24;3.38;;;3.00;;
72864;SDS011;61000;48.120;11.548;2022-08-27T13:48:54;5.82;;;3.22;;
72864;SDS011;61000;48.120;11.548;2022-08-27T13:51:24;5.28;;;3.58;;
72864;SDS011;61000;48.120;11.548;2022-08-27T13:53:54;3.90;;;3.50;;
72864;SDS011;61000;48.120;11.548;2022-08-27T13:56:41;4.60;;;2.85;;
72864;SDS011;61000;48.120;11.548;2022-08-27T13:59:22;3.80;;;3.45;;
72864;SDS011;61000;48.120;11.548;2022-08-27T14:02:00;3.58;;;3.28;;
72864;SDS011;61000;48.120;11.548;2022-08-27T14:04:34;3.78;;;3.22;;
72864;SDS011;61000;48.120;11.548;2022-08-27T14:07:07;5.18;;;4.10;;
72864;SDS011;61000;48.120;11.548;2022-08-27T14:09:40;4.13;;;3.05;;
72864;SDS011;61000;48.120;11.548;2022-08-27T14:12:16;5.75;;;3.22;;
72864;SDS011;61000;48.120;11.548;2022-08-27T14:14:50;6.65;;;3.22;;
72864;SDS011;61000;48.120;11.548;2022-08-27T14:17:21;5.63;;;3.13;;
72864;SDS011;61000;48.120;11.548;2022-08-27T14:19:50;3.03;;;2.72;;
72864;SDS011;61000;48.120;11.548;2022-08-27T14:22:17;3.92;;;3.13;;
72864;SDS011;61000;48.120;11.548;2022-08-27T14:24:44;4.13;;;2.88;;
72864;SDS011;61000;48.120;11.548;2022-08-27T14:27:12;3.67;;;2.95;;
72864;SDS011;61000;48.120;11.548;2022-08-27T14:29:41;3.05;;;2.65;;
72864;SDS011;61000;48.120;11.548;2022-08-27T14:32:08;4.78;;;2.80;;
72864;SDS011;61000;48.120;11.548;2022-08-27T14:34:36;6.03;;;2.83;;
72864;SDS011;61000;48.120;11.548;2022-08-27T14:37:03;4.25;;;2.67;;
72864;SDS011;61000;48.120;11.548;2022-08-27T14:39:31;6.13;;;2.40;;
72864;SDS011;61000;48.120;11.548;2022-08-27T14:42:01;4.13;;;2.90;;
72864;SDS011;61000;48.120;11.548;2022-08-27T14:44:28;2.90;;;2.60;;
72864;SDS011;61000;48.120;11.548;2022-08-27T14:46:55;4.53;;;2.72;;
72864;SDS011;61000;48.120;11.548;2022-08-27T14:49:24;4.90;;;3.00;;
72864;SDS011;61000;48.120;11.548;2022-08-27T14:51:57;3.65;;;2.95;;